createdAt,value
2022-10-01T00:00:22.628Z,82.67
2022-10-01T00:02:49.214Z,83.51
2022-10-01T00:05:15.824Z,83.16
2022-10-01T00:07:44.304Z,83.26
2022-10-01T00:10:12.438Z,83.11
2022-10-01T00:12:43.407Z,82.84
2022-10-01T00:15:13.362Z,83.03
2022-10-01T00:17:40.116Z,83.50
2022-10-01T00:20:13.990Z,83.30
2022-10-01T00:22:40.532Z,82.63
2022-10-01T00:25:07.388Z,83.39
2022-10-01T00:27:34.141Z,84.23
2022-10-01T00:30:00.626Z,85.39
2022-10-01T00:32:27.114Z,86.77
2022-10-01T00:34:56.746Z,86.31
2022-10-01T00:37:23.740Z,87.09
2022-10-01T00:39:50.205Z,86.99
2022-10-01T00:42:24.782Z,86.46
2022-10-01T00:44:51.507Z,85.61
2022-10-01T00:47:30.107Z,85.71
2022-10-01T00:50:05.951Z,84.83
2022-10-01T00:52:35.239Z,85.07
2022-10-01T00:55:13.720Z,84.93
2022-10-01T00:57:40.944Z,84.57
2022-10-01T01:00:09.216Z,83.96
2022-10-01T01:02:35.950Z,83.74
2022-10-01T01:05:03.095Z,83.30
2022-10-01T01:07:32.740Z,84.16
2022-10-01T01:10:00.582Z,84.92
2022-10-01T01:12:46.543Z,84.91
2022-10-01T01:15:30.086Z,86.30
2022-10-01T01:17:56.588Z,86.19
2022-10-01T01:20:55.791Z,86.72
2022-10-01T01:23:59.886Z,86.53
2022-10-01T01:26:50.866Z,86.60
2022-10-01T01:29:23.988Z,87.92
2022-10-01T01:31:50.816Z,88.29
2022-10-01T01:34:26.660Z,87.76
2022-10-01T01:37:07.016Z,87.61
2022-10-01T01:39:38.516Z,87.31
2022-10-01T01:42:10.254Z,87.21
2022-10-01T01:44:40.201Z,87.58
2022-10-01T01:47:07.618Z,86.83
2022-10-01T01:49:34.303Z,86.25
2022-10-01T01:52:05.696Z,85.54
2022-10-01T01:54:32.420Z,84.38
2022-10-01T01:57:00.127Z,84.31
2022-10-01T01:59:28.341Z,85.21
2022-10-01T02:01:54.869Z,86.36
2022-10-01T02:04:35.288Z,86.40
2022-10-01T02:07:04.944Z,86.68
2022-10-01T02:09:37.300Z,86.96
2022-10-01T02:12:09.356Z,86.77
2022-10-01T02:14:54.821Z,86.25
2022-10-01T02:17:24.807Z,85.82
2022-10-01T02:20:02.594Z,84.88
2022-10-01T02:22:44.279Z,85.14
2022-10-01T02:25:11.492Z,86.11
2022-10-01T02:27:44.278Z,87.04
2022-10-01T02:30:11.849Z,87.49
2022-10-01T02:32:40.480Z,87.45
2022-10-01T02:35:10.415Z,87.98
2022-10-01T02:37:37.878Z,87.04
2022-10-01T02:40:08.605Z,87.47
2022-10-01T02:42:36.671Z,88.54
2022-10-01T02:45:04.587Z,87.69
2022-10-01T02:47:37.698Z,88.18
2022-10-01T02:50:05.555Z,87.61
2022-10-01T02:52:52.678Z,86.60
2022-10-01T02:55:24.262Z,87.42
2022-10-01T02:57:51.133Z,87.51
2022-10-01T03:00:18.964Z,87.44
2022-10-01T03:02:45.971Z,87.07
2022-10-01T03:05:12.518Z,87.61
2022-10-01T03:07:39.339Z,87.55
2022-10-01T03:10:06.539Z,88.38
2022-10-01T03:12:33.274Z,87.39
2022-10-01T03:14:59.731Z,86.93
2022-10-01T03:17:26.808Z,86.50
2022-10-01T03:19:54.369Z,86.31
2022-10-01T03:22:22.377Z,85.61
2022-10-01T03:24:50.065Z,85.45
2022-10-01T03:27:16.852Z,84.87
2022-10-01T03:29:44.260Z,85.63
2022-10-01T03:32:11.272Z,85.00
2022-10-01T03:34:37.711Z,85.19
2022-10-01T03:37:08.070Z,85.39
2022-10-01T03:39:34.671Z,86.48
2022-10-01T03:42:01.178Z,86.93
2022-10-01T03:44:28.906Z,87.46
2022-10-01T03:46:55.997Z,86.28
2022-10-01T03:49:23.880Z,85.79
2022-10-01T03:51:52.106Z,86.10
2022-10-01T03:54:18.643Z,87.59
2022-10-01T03:56:45.223Z,87.50
2022-10-01T03:59:12.142Z,87.64
2022-10-01T04:01:39.440Z,88.28
2022-10-01T04:04:06.918Z,87.33
2022-10-01T04:06:33.528Z,87.46
2022-10-01T04:09:00.184Z,86.92
2022-10-01T04:11:26.665Z,86.74
2022-10-01T04:14:13.275Z,86.89
2022-10-01T04:16:39.761Z,87.58
2022-10-01T04:19:06.346Z,86.97
2022-10-01T04:21:33.474Z,87.17
2022-10-01T04:24:00.303Z,86.62
2022-10-01T04:26:26.777Z,86.64
2022-10-01T04:28:53.470Z,86.51
2022-10-01T04:31:20.031Z,85.36
2022-10-01T04:33:46.548Z,84.65
2022-10-01T04:36:13.062Z,84.18
2022-10-01T04:38:39.521Z,83.44
2022-10-01T04:41:06.070Z,83.59
2022-10-01T04:43:32.553Z,83.59
2022-10-01T04:45:59.253Z,83.69
2022-10-01T04:48:25.854Z,84.25
2022-10-01T04:50:52.424Z,84.38
2022-10-01T04:53:19.055Z,84.06
2022-10-01T04:55:45.537Z,84.45
2022-10-01T04:58:12.032Z,84.07
2022-10-01T05:00:38.590Z,84.80
2022-10-01T05:03:05.068Z,84.16
2022-10-01T05:05:31.619Z,85.88
2022-10-01T05:08:01.118Z,85.56
2022-10-01T05:10:27.749Z,86.33
2022-10-01T05:12:54.542Z,85.90
2022-10-01T05:15:21.316Z,84.99
2022-10-01T05:17:48.205Z,85.39
2022-10-01T05:20:17.705Z,85.30
2022-10-01T05:22:45.278Z,85.27
2022-10-01T05:25:11.828Z,85.48
2022-10-01T05:27:38.987Z,85.00
2022-10-01T05:30:06.234Z,85.20
2022-10-01T05:32:32.690Z,85.58
2022-10-01T05:34:59.143Z,86.28
2022-10-01T05:37:25.639Z,85.56
2022-10-01T05:39:52.847Z,86.15
2022-10-01T05:42:19.592Z,86.52
2022-10-01T05:44:47.436Z,86.02
2022-10-01T05:47:14.158Z,85.41
2022-10-01T05:49:42.687Z,84.85
2022-10-01T05:52:13.014Z,84.23
2022-10-01T05:54:39.768Z,83.31
2022-10-01T05:57:07.197Z,83.61
2022-10-01T05:59:34.491Z,82.34
2022-10-01T06:02:01.098Z,84.05
2022-10-01T06:04:27.693Z,84.57
2022-10-01T06:06:54.264Z,84.41
2022-10-01T06:09:21.867Z,83.99
2022-10-01T06:11:48.690Z,83.27
2022-10-01T06:14:15.787Z,83.76
2022-10-01T06:16:42.314Z,84.16
2022-10-01T06:19:09.209Z,85.69
2022-10-01T06:21:36.075Z,86.31
2022-10-01T06:24:03.176Z,87.23
2022-10-01T06:26:29.644Z,87.58
2022-10-01T06:28:56.163Z,88.03
2022-10-01T06:31:23.126Z,88.02
2022-10-01T06:33:49.645Z,88.14
2022-10-01T06:36:16.135Z,88.87
2022-10-01T06:38:42.764Z,88.24
2022-10-01T06:41:09.333Z,88.64
2022-10-01T06:43:35.794Z,88.38
2022-10-01T06:46:03.911Z,88.76
2022-10-01T06:48:31.205Z,87.75
2022-10-01T06:50:58.477Z,87.14
2022-10-01T06:53:27.161Z,86.94
2022-10-01T06:55:53.784Z,86.10
2022-10-01T06:58:22.772Z,86.12
2022-10-01T07:00:50.305Z,85.81
2022-10-01T07:03:21.522Z,84.65
2022-10-01T07:05:49.571Z,84.03
2022-10-01T07:08:16.451Z,84.54
2022-10-01T07:10:43.465Z,83.62
2022-10-01T07:13:18.216Z,83.17
2022-10-01T07:15:45.237Z,83.88
2022-10-01T07:18:12.402Z,83.38
2022-10-01T07:20:40.361Z,82.71
2022-10-01T07:23:10.655Z,82.78
2022-10-01T07:25:38.773Z,82.04
2022-10-01T07:28:06.482Z,81.09
2022-10-01T07:30:34.063Z,80.29
2022-10-01T07:33:00.690Z,80.37
2022-10-01T07:35:27.680Z,80.50
2022-10-01T07:37:56.361Z,80.06
2022-10-01T07:40:23.009Z,79.06
2022-10-01T07:42:56.194Z,78.89
2022-10-01T07:45:24.162Z,78.92
2022-10-01T07:48:01.820Z,79.65
2022-10-01T07:50:31.631Z,79.71
2022-10-01T07:52:59.031Z,80.77
2022-10-01T07:55:27.243Z,80.37
2022-10-01T07:57:55.083Z,80.70
2022-10-01T08:00:22.863Z,81.05
2022-10-01T08:02:50.948Z,80.16
2022-10-01T08:05:18.885Z,79.25
2022-10-01T08:07:46.207Z,78.81
2022-10-01T08:10:13.436Z,79.58
2022-10-01T08:12:40.320Z,80.42
2022-10-01T08:15:07.573Z,79.90
2022-10-01T08:17:34.267Z,80.70
2022-10-01T08:20:01.143Z,81.57
2022-10-01T08:22:27.637Z,82.33
2022-10-01T08:24:54.159Z,84.11
2022-10-01T08:27:20.627Z,83.82
2022-10-01T08:29:47.113Z,83.22
2022-10-01T08:32:14.020Z,83.88
2022-10-01T08:34:45.882Z,83.63
2022-10-01T08:37:12.501Z,83.39
2022-10-01T08:39:38.950Z,82.88
2022-10-01T08:42:32.196Z,83.59
2022-10-01T08:45:01.882Z,84.23
2022-10-01T08:47:41.216Z,83.66
2022-10-01T08:50:29.057Z,83.08
2022-10-01T08:53:00.479Z,83.80
2022-10-01T08:55:28.530Z,84.14
2022-10-01T08:57:58.970Z,82.91
2022-10-01T09:00:25.728Z,83.44
2022-10-01T09:02:52.363Z,84.13
2022-10-01T09:05:52.498Z,83.46
2022-10-01T09:08:40.820Z,83.58
2022-10-01T09:11:19.687Z,82.57
2022-10-01T09:14:01.811Z,82.55
2022-10-01T09:16:34.795Z,83.29
2022-10-01T09:19:05.105Z,84.39
2022-10-01T09:21:43.203Z,83.66
2022-10-01T09:24:14.939Z,83.50
2022-10-01T09:26:44.925Z,83.69
2022-10-01T09:29:17.648Z,82.50
2022-10-01T09:31:46.177Z,82.39
2022-10-01T09:34:15.039Z,83.19
2022-10-01T09:37:03.649Z,83.62
2022-10-01T09:39:35.072Z,83.25
2022-10-01T09:42:01.587Z,83.81
2022-10-01T09:44:30.180Z,84.50
2022-10-01T09:46:56.926Z,83.56
2022-10-01T09:49:31.177Z,83.18
2022-10-01T09:52:04.431Z,82.35
2022-10-01T09:54:34.843Z,82.64
2022-10-01T09:57:08.918Z,81.82
2022-10-01T09:59:42.803Z,82.22
2022-10-01T10:02:17.913Z,80.69
2022-10-01T10:04:44.543Z,79.98
2022-10-01T10:07:16.211Z,80.64
2022-10-01T10:09:42.690Z,80.97
2022-10-01T10:12:27.995Z,80.40
2022-10-01T10:14:55.649Z,80.64
2022-10-01T10:17:22.612Z,80.70
2022-10-01T10:19:50.889Z,79.33
2022-10-01T10:22:28.055Z,78.64
2022-10-01T10:24:55.824Z,77.21
2022-10-01T10:27:28.060Z,77.99
2022-10-01T10:30:19.540Z,77.17
2022-10-01T10:32:46.705Z,78.09
2022-10-01T10:35:17.974Z,78.34
2022-10-01T10:37:50.951Z,78.16
2022-10-01T10:40:19.784Z,77.96
2022-10-01T10:42:50.993Z,77.95
2022-10-01T10:45:19.940Z,77.67
2022-10-01T10:47:49.342Z,78.02
2022-10-01T10:50:29.786Z,76.63
2022-10-01T10:52:57.031Z,76.64
2022-10-01T10:55:31.196Z,77.59
2022-10-01T10:58:10.790Z,78.07
2022-10-01T11:00:45.139Z,77.37
2022-10-01T11:03:14.687Z,76.97
2022-10-01T11:05:42.542Z,77.27
2022-10-01T11:08:18.922Z,76.81
2022-10-01T11:10:58.166Z,76.13
2022-10-01T11:13:27.561Z,77.07
2022-10-01T11:16:29.707Z,78.57
2022-10-01T11:19:11.455Z,78.24
2022-10-01T11:21:53.131Z,77.53
2022-10-01T11:24:41.672Z,77.62
2022-10-01T11:27:29.453Z,77.99
2022-10-01T11:30:05.330Z,76.86
2022-10-01T11:32:38.764Z,77.08
2022-10-01T11:35:23.350Z,76.03
2022-10-01T11:38:16.256Z,75.33
2022-10-01T11:40:46.020Z,75.68
2022-10-01T11:43:26.739Z,76.20
2022-10-01T11:46:01.028Z,75.91
2022-10-01T11:48:39.626Z,77.11
2022-10-01T11:51:16.645Z,76.48
2022-10-01T11:53:48.431Z,78.89
2022-10-01T11:56:22.977Z,80.17
2022-10-01T11:59:08.222Z,80.32
2022-10-01T12:02:06.354Z,78.41
2022-10-01T12:04:37.176Z,78.27
2022-10-01T12:07:22.299Z,79.09
2022-10-01T12:09:55.072Z,79.12
2022-10-01T12:12:39.233Z,80.06
2022-10-01T12:15:20.992Z,79.42
2022-10-01T12:17:57.979Z,80.70
2022-10-01T12:20:31.562Z,80.19
2022-10-01T12:22:59.046Z,81.51
2022-10-01T12:25:42.369Z,80.65
2022-10-01T12:28:22.640Z,80.64
2022-10-01T12:31:00.234Z,81.07
2022-10-01T12:33:40.419Z,81.27
2022-10-01T12:36:09.841Z,81.82
2022-10-01T12:38:58.031Z,81.72
2022-10-01T12:41:24.428Z,82.76
2022-10-01T12:43:57.454Z,83.46
2022-10-01T12:46:42.131Z,83.81
2022-10-01T12:49:40.949Z,84.88
2022-10-01T12:52:19.179Z,84.93
2022-10-01T12:55:15.967Z,86.39
2022-10-01T12:58:19.144Z,86.92
2022-10-01T13:01:03.958Z,87.42
2022-10-01T13:03:45.549Z,87.61
2022-10-01T13:06:41.409Z,87.86
2022-10-01T13:09:16.668Z,87.66
2022-10-01T13:12:08.053Z,88.78
2022-10-01T13:14:34.938Z,89.35
2022-10-01T13:17:33.883Z,89.72
2022-10-01T13:20:03.675Z,90.42
2022-10-01T13:22:48.393Z,90.65
2022-10-01T13:25:23.962Z,92.45
2022-10-01T13:27:59.000Z,92.12
2022-10-01T13:30:27.430Z,93.81
2022-10-01T13:33:01.520Z,94.95
2022-10-01T13:35:35.564Z,95.55
2022-10-01T13:38:16.823Z,95.66
2022-10-01T13:40:43.475Z,94.41
2022-10-01T13:43:21.207Z,94.00
2022-10-01T13:45:49.695Z,93.17
2022-10-01T13:48:20.738Z,94.59
2022-10-01T13:51:09.429Z,95.95
2022-10-01T13:53:47.888Z,96.94
2022-10-01T13:56:25.969Z,96.80
2022-10-01T13:58:52.950Z,96.39
2022-10-01T14:01:23.843Z,96.38
2022-10-01T14:04:15.041Z,96.55
2022-10-01T14:06:47.692Z,96.92
2022-10-01T14:09:25.144Z,95.88
2022-10-01T14:11:57.021Z,95.41
2022-10-01T14:14:41.844Z,95.04
2022-10-01T14:17:09.780Z,95.77
2022-10-01T14:19:37.182Z,96.24
2022-10-01T14:22:12.326Z,95.79
2022-10-01T14:24:45.025Z,95.73
2022-10-01T14:27:20.208Z,96.97
2022-10-01T14:30:01.881Z,96.87
2022-10-01T14:32:42.052Z,96.81
2022-10-01T14:35:36.334Z,97.47
2022-10-01T14:38:12.993Z,96.30
2022-10-01T14:40:41.509Z,96.63
2022-10-01T14:43:25.981Z,96.06
2022-10-01T14:45:58.029Z,95.79
2022-10-01T14:48:30.276Z,94.67
2022-10-01T14:51:05.100Z,94.59
2022-10-01T14:53:36.423Z,95.34
2022-10-01T14:56:09.152Z,96.29
2022-10-01T14:58:44.559Z,96.49
2022-10-01T15:01:21.954Z,96.48
2022-10-01T15:03:49.596Z,96.54
2022-10-01T15:06:24.991Z,95.58
2022-10-01T15:08:56.178Z,95.48
2022-10-01T15:11:24.776Z,94.70
2022-10-01T15:13:54.829Z,94.31
2022-10-01T15:16:23.296Z,94.42
2022-10-01T15:19:09.118Z,94.59
2022-10-01T15:21:37.437Z,94.70
2022-10-01T15:24:05.912Z,94.97
2022-10-01T15:26:33.106Z,95.37
2022-10-01T15:29:11.650Z,95.28
2022-10-01T15:31:38.871Z,96.22
2022-10-01T15:34:06.846Z,97.31
2022-10-01T15:36:38.307Z,97.88
2022-10-01T15:39:29.845Z,97.18
2022-10-01T15:42:01.581Z,96.59
2022-10-01T15:44:39.300Z,97.35
2022-10-01T15:47:35.661Z,97.16
2022-10-01T15:50:02.149Z,98.65
2022-10-01T15:52:30.484Z,99.61
2022-10-01T15:54:59.109Z,99.31
2022-10-01T15:57:26.558Z,98.91
2022-10-01T15:59:55.070Z,98.87
2022-10-01T16:02:27.457Z,100.00
2022-10-01T16:04:54.145Z,100.00
2022-10-01T16:07:25.527Z,100.00
2022-10-01T16:09:56.539Z,100.00
2022-10-01T16:12:23.481Z,100.00
2022-10-01T16:14:57.853Z,100.00
2022-10-01T16:17:28.887Z,99.69
2022-10-01T16:20:31.457Z,99.29
2022-10-01T16:23:46.022Z,99.41
2022-10-01T16:26:29.342Z,100.00
2022-10-01T16:28:56.080Z,100.00
2022-10-01T16:31:24.038Z,100.00
2022-10-01T16:33:50.494Z,100.00
2022-10-01T16:36:21.085Z,100.00
2022-10-01T16:38:47.969Z,100.00
2022-10-01T16:41:19.072Z,100.00
2022-10-01T16:43:45.538Z,100.00
2022-10-01T16:46:12.061Z,100.00
2022-10-01T16:48:39.257Z,100.00
2022-10-01T16:51:06.045Z,100.00
2022-10-01T16:53:32.747Z,100.00
2022-10-01T16:55:59.485Z,100.00
2022-10-01T16:58:26.126Z,100.00
2022-10-01T17:00:52.699Z,100.00
2022-10-01T17:03:21.230Z,100.00
2022-10-01T17:05:47.958Z,99.96
2022-10-01T17:08:14.536Z,99.38
2022-10-01T17:10:50.934Z,99.26
2022-10-01T17:13:17.372Z,98.18
2022-10-01T17:15:43.916Z,97.67
2022-10-01T17:18:10.576Z,99.01
2022-10-01T17:20:37.662Z,99.56
2022-10-01T17:23:05.617Z,99.88
2022-10-01T17:25:34.660Z,99.03
2022-10-01T17:28:04.446Z,97.98
2022-10-01T17:30:31.179Z,97.28
2022-10-01T17:32:59.030Z,97.20
2022-10-01T17:35:25.644Z,97.18
2022-10-01T17:37:52.493Z,95.91
2022-10-01T17:40:19.085Z,95.49
2022-10-01T17:42:45.650Z,95.85
2022-10-01T17:45:13.986Z,94.72
2022-10-01T17:47:48.542Z,93.24
2022-10-01T17:50:15.468Z,93.07
2022-10-01T17:52:42.455Z,92.62
2022-10-01T17:55:10.163Z,92.10
2022-10-01T17:57:36.962Z,91.54
2022-10-01T18:00:04.877Z,91.19
2022-10-01T18:02:47.023Z,90.47
2022-10-01T18:05:14.265Z,91.57
2022-10-01T18:07:41.992Z,92.50
2022-10-01T18:10:10.777Z,91.58
2022-10-01T18:12:37.256Z,92.36
2022-10-01T18:15:03.893Z,91.87
2022-10-01T18:17:32.218Z,91.21
2022-10-01T18:19:58.854Z,91.44
2022-10-01T18:22:25.316Z,92.03
2022-10-01T18:24:51.876Z,92.02
2022-10-01T18:27:18.552Z,91.86
2022-10-01T18:29:45.033Z,91.79
2022-10-01T18:32:21.710Z,91.48
2022-10-01T18:34:57.643Z,90.97
2022-10-01T18:37:47.142Z,91.11
2022-10-01T18:40:26.826Z,90.64
2022-10-01T18:43:09.807Z,92.49
2022-10-01T18:46:05.141Z,91.90
2022-10-01T18:48:43.575Z,92.03
2022-10-01T18:51:34.355Z,92.20
2022-10-01T18:54:21.418Z,92.44
2022-10-01T18:57:31.252Z,94.55
2022-10-01T19:00:12.120Z,94.76
2022-10-01T19:03:03.133Z,95.68
2022-10-01T19:05:48.902Z,97.17
2022-10-01T19:08:39.199Z,95.96
2022-10-01T19:11:18.382Z,96.32
2022-10-01T19:14:18.130Z,97.67
2022-10-01T19:17:14.554Z,96.66
2022-10-01T19:19:59.813Z,95.28
2022-10-01T19:22:54.640Z,94.68
2022-10-01T19:25:37.612Z,93.48
2022-10-01T19:28:11.414Z,93.50
2022-10-01T19:30:54.020Z,94.20
2022-10-01T19:33:21.534Z,93.49
2022-10-01T19:35:53.892Z,92.87
2022-10-01T19:38:40.995Z,93.00
2022-10-01T19:41:13.850Z,93.08
2022-10-01T19:43:57.710Z,93.63
2022-10-01T19:46:44.198Z,93.75
2022-10-01T19:49:31.816Z,93.84
2022-10-01T19:52:01.374Z,92.49
2022-10-01T19:54:35.333Z,92.81
2022-10-01T19:57:19.446Z,94.69
2022-10-01T19:59:46.792Z,96.00
2022-10-01T20:02:21.892Z,95.84
2022-10-01T20:05:05.338Z,97.70
2022-10-01T20:07:46.748Z,98.54
2022-10-01T20:10:43.114Z,98.38
2022-10-01T20:13:37.356Z,98.79
2022-10-01T20:16:24.354Z,99.07
2022-10-01T20:18:53.782Z,99.29
2022-10-01T20:21:29.666Z,99.30
2022-10-01T20:24:25.086Z,99.27
2022-10-01T20:27:29.207Z,98.53
2022-10-01T20:30:11.107Z,98.48
2022-10-01T20:32:50.054Z,99.77
2022-10-01T20:35:25.045Z,99.48
2022-10-01T20:37:56.129Z,98.70
2022-10-01T20:40:25.574Z,98.49
2022-10-01T20:42:56.619Z,96.60
2022-10-01T20:45:26.829Z,96.87
2022-10-01T20:47:56.369Z,96.53
2022-10-01T20:50:35.295Z,97.79
2022-10-01T20:53:15.495Z,98.56
2022-10-01T20:55:56.501Z,99.43
2022-10-01T20:58:47.742Z,100.00
2022-10-01T21:01:18.174Z,100.00
2022-10-01T21:03:48.152Z,100.00
2022-10-01T21:06:29.938Z,100.00
2022-10-01T21:09:00.663Z,100.00
2022-10-01T21:11:41.047Z,100.00
2022-10-01T21:14:18.555Z,100.00
2022-10-01T21:17:11.940Z,100.00
2022-10-01T21:20:05.787Z,99.77
2022-10-01T21:22:53.862Z,98.30
2022-10-01T21:25:51.295Z,98.25
2022-10-01T21:28:27.249Z,98.89
2022-10-01T21:31:05.895Z,99.07
2022-10-01T21:33:53.184Z,98.38
2022-10-01T21:36:31.547Z,97.64
2022-10-01T21:39:19.588Z,96.91
2022-10-01T21:42:10.892Z,95.47
2022-10-01T21:44:47.506Z,96.65
2022-10-01T21:47:28.754Z,95.81
2022-10-01T21:50:00.964Z,97.29
2022-10-01T21:52:36.706Z,97.46
2022-10-01T21:55:15.381Z,97.95
2022-10-01T21:58:05.700Z,96.93
2022-10-01T22:00:32.219Z,96.50
2022-10-01T22:03:13.731Z,95.44
2022-10-01T22:05:57.900Z,94.96
2022-10-01T22:08:45.499Z,94.97
2022-10-01T22:11:23.838Z,94.34
2022-10-01T22:13:57.419Z,95.21
2022-10-01T22:16:27.012Z,95.36
2022-10-01T22:18:56.539Z,94.84
2022-10-01T22:21:42.286Z,96.47
2022-10-01T22:24:11.744Z,95.77
2022-10-01T22:26:46.292Z,94.66
2022-10-01T22:29:21.488Z,93.04
2022-10-01T22:31:49.401Z,92.62
2022-10-01T22:34:21.451Z,92.65
2022-10-01T22:36:52.028Z,91.70
2022-10-01T22:39:23.587Z,92.89
2022-10-01T22:41:59.454Z,92.77
2022-10-01T22:44:27.799Z,93.41
2022-10-01T22:47:15.227Z,93.95
2022-10-01T22:50:06.537Z,93.56
2022-10-01T22:52:41.627Z,95.34
2022-10-01T22:55:23.652Z,96.95
2022-10-01T22:57:54.399Z,98.79
2022-10-01T23:00:21.042Z,98.67
2022-10-01T23:03:15.216Z,97.72
2022-10-01T23:06:02.004Z,98.15
2022-10-01T23:08:50.826Z,98.52
2022-10-01T23:11:23.300Z,98.90
2022-10-01T23:13:52.742Z,100.00
2022-10-01T23:16:38.292Z,100.00
2022-10-01T23:19:52.762Z,100.00
2022-10-01T23:22:35.424Z,100.00
2022-10-01T23:25:14.165Z,100.00
2022-10-01T23:28:02.689Z,100.00
2022-10-01T23:30:40.587Z,99.75
2022-10-01T23:33:19.888Z,98.32
2022-10-01T23:35:50.547Z,96.73
2022-10-01T23:38:32.296Z,96.06
2022-10-01T23:41:02.940Z,95.56
2022-10-01T23:43:47.470Z,93.89
2022-10-01T23:46:34.288Z,94.38
2022-10-01T23:49:13.184Z,94.70
2022-10-01T23:52:03.116Z,95.13
2022-10-01T23:54:29.623Z,95.03
2022-10-01T23:57:02.163Z,97.05
2022-10-01T23:59:32.212Z,97.51
